McGrath, AK

12:38 PM AKDT on July 22, 2014 (GMT -0800)
McGrath (PAMC) Elev 338 ft | 62.95 °N, 155.61 °W | Change Station

Current weather conditions updated 1 hour ago

Light Rain
Light Rain
56 °F
Feels Like 56 °F
N
5
Wind Variable Wind from South

Today is forecast to be Cooler than yesterday. Showers early tonight.

Today
High -- | Low -- °F
--% Chance of Precip.
Yesterday
High -- | Low -- °F
Precip. -- in
5:10 AM 11:39 PM
Waning Crescent, 15% visible
Pressure 29.88 in
Visibility 10.0 miles
Clouds Few 500 ft
Mostly Cloudy 2000 ft
Overcast 6000 ft
Dew Point 53 °F
Humidity 90%
Rainfall 0.30 in
Snow Depth Not available.
UV 1 out of 12
Pollen Not available.
Air Quality Not available.
Flu Activity Sporadic
METAR PAMC 221853Z 17004KT 10SM -RA FEW005 BKN020 OVC060 13/12 A2987 RMK AO2 SLP116 P0002 T01330117 $

More Conditions Fewer Conditions

Pressure 29.88 in
Visibility 10.0 miles
Clouds Few 500 ft
Mostly Cloudy 2000 ft
Overcast 6000 ft
Dew Point 53 °F
Humidity 90%
Rainfall 0.30 in
Snow Depth Not available.
UV 1 out of 12
Pollen Not available.
Air Quality Not available.
Flu Activity Sporadic
METAR PAMC 221853Z 17004KT 10SM -RA FEW005 BKN020 OVC060 13/12 A2987 RMK AO2 SLP116 P0002 T01330117 $

More Conditions Fewer Conditions

10-Day Weather Forecast

Almanac

Astronomy

Jul. 22, 2014 Rise Set
Actual Time 5:10 AM AKDT 11:39 PM AKDT
Civil Twilight 3:26 AM AKDT 1:19 AM AKDT
Nautical Twilight Sun does not rise Sun does not rise
Astronomical Twilight Sun does not rise Sun does not rise
Moon 2:11 AM AKDT 8:13 PM AKDT
Length of Visible Light 21h 52m
Length of Day
18h 29m
Tomorrow will be 5m 31s shorter.
Waning Crescent, 15% of the Moon is Illuminated
Today
Waning Crescent
Jul 26
New
Aug 3
First Quarter
Aug 10
Full
Aug 17
Last Quarter

Today's Extremes

State Highs State Lows

Community

WunderPhotos

Upload Photos

1,736,343 photos uploaded!

Nearby

Snow Depth

Station Depth Elevation
Susitna Valley High 2 in 375 ft
Point Mackenzie 0 in 200 ft
Indian Pass 1 in 2300 ft
Summit Creek 0 in 1400 ft
Mcneil Canyon 1 in 1320 ft

Earthquake Activity

City Distance Mag. Time & Date
No recent earthquake activity has been reported nearby.
Minimum magnitude displayed is 2.5.

Coastal Water Temperatures

Place Temperature
No Stations Reporting

Nearby Weather Stations

There are no personal weather stations in this area.